Sapporo, Japan
Current Conditions -  °F | °C
As of 2:30 PM on Thursday 27 Nov 2014 (Local Time) from RJCC Reporting Station
Rain Showers Rain Showers  
Wind Chill: 39°   Ceiling: 2500
Heat Index: 43°   Visibility: 6mi
Dew Point: 41°   Wind: 7mph
Humidity: 93%   Direction: 120°ESE
Pressure: 30.15"   Gusts: NA
Location:  43.07°N, 141.35°E
Report Text: RJCC 270530Z 12006KT 9999 -SHRA FEW010 BKN025 BKN045 06/05 Q1021 RMK 1ST010 5CU025 6SC045 A3016
Loading
Personal Weather Stations






























Interactive Weather Map New forecast layout! Learn more

10-Day Weather Forecast

Advertisements
Track Severe Weather on mobile